Tuesday, July 17, 2018, 12:36 AM CDT
Back to Local

KTOP, Topeka Billard Municipal Airport

Location: Topeka, KS, United States Lat: 39.067
Local Time: 12:36 AM CDT ( 5:36 GMT) Lon: -95.633
Time Zone: US/Central Elev: 882 ft

Show me the last for .
Show Decoded

2018-07-16 23:53 METAR KTOP 170453Z AUTO 00000KT 10SM CLR 26/23 A3003 RMK AO2 SLP159 T02610233 =
2018-07-16 22:53 METAR KTOP 170353Z AUTO 00000KT 10SM CLR 28/23 A3003 RMK AO2 SLP159 T02830228 =
2018-07-16 21:53 METAR KTOP 170253Z AUTO 04003KT 10SM CLR 28/22 A3002 RMK AO2 SLP154 T02780222
                 53013 =
2018-07-16 20:53 METAR KTOP 170153Z AUTO 00000KT 10SM CLR 29/21 A2999 RMK AO2 SLP145 T02940211 =
2018-07-16 19:53 METAR KTOP 170053Z AUTO 05005KT 10SM CLR 32/21 A2998 RMK AO2 SLP140 T03220211 =
2018-07-16 18:53 METAR KTOP 162353Z 06005KT 10SM CLR 34/21 A2998 RMK AO2 SLP140 T03440206 10356
                 20300 56006 =
2018-07-16 17:53 METAR KTOP 162253Z VRB04KT 10SM CLR 35/20 A2998 RMK AO2 SLP140 T03500200 =
2018-07-16 16:53 METAR KTOP 162153Z 08004KT 10SM CLR 35/21 A2998 RMK AO2 SLP142 T03500206 =
2018-07-16 14:53 METAR KTOP 161953Z VRB03KT 10SM CLR 34/21 A3001 RMK AO2 SLP153 T03390206 =
2018-07-16 13:53 METAR KTOP 161853Z VRB03KT 10SM BKN120 32/21 A3004 RMK AO2 SLP162 T03220211 =
2018-07-16 12:53 METAR KTOP 161753Z 15003KT 10SM OVC120 31/21 A3004 RMK AO2 SLP163 60005
                 T03060211 10311 20233 58007 =
2018-07-16 11:53 METAR KTOP 161653Z 00000KT 10SM CLR 31/20 A3005 RMK AO2 SLP166 T03060200 =
2018-07-16 10:53 METAR KTOP 161553Z 34003KT 10SM FEW070 30/22 A3007 RMK AO2 SLP171 T03000222 =
2018-07-16 09:53 METAR KTOP 161453Z 00000KT 10SM CLR 29/22 A3007 RMK AO2 SLP171 60005 T02890217
                 53010 =
2018-07-16 08:53 METAR KTOP 161353Z 00000KT 10SM CLR 24/23 A3005 RMK AO2 RAE1257 SLP166 P0000
                 T02440233 =
2018-07-16 07:53 METAR KTOP 161253Z 09006KT 10SM -RA FEW038 FEW110 23/23 A3003 RMK AO2 SLP160
                 P0005 T02330228 =
2018-07-16 07:33 METAR KTOP 161233Z 00000KT 4SM -RA BR FEW110 23/23 A3004 RMK AO2 LTG DSNT S
                 P0005 T02330228 =
2018-07-16 06:53 METAR KTOP 161153Z 28004KT 9SM VCTS -RA SCT050 BKN090 OVC110 24/22 A3003 RMK AO2
                 LTG DSNT SW RAB22 SLP160 P0000 60000 T02390222 10250 20228 53013 =
2018-07-16 06:36 METAR KTOP 161136Z AUTO 29007KT 10SM VCTS -RA BKN050 BKN065 OVC100 25/20 A3003
                 RMK AO2 LTG DSNT SW RAB22 P0000 T02500200 =
2018-07-16 06:25 METAR KTOP 161125Z AUTO 29008KT 10SM -RA BKN055 OVC065 25/20 A3003 RMK AO2 LTG
                 DSNT SW-NW RAB22 P0000 T02500200 =
2018-07-16 05:53 METAR KTOP 161053Z AUTO 31005KT 10SM VCTS SCT050 SCT110 23/21 A3001 RMK AO2 LTG
                 DSNT W AND NW SLP153 T02330211 =
2018-07-16 04:53 METAR KTOP 160953Z AUTO 00000KT 10SM FEW055 23/21 A3000 RMK AO2 LTG DSNT W
                 SLP148 T02330211 =
2018-07-16 03:53 METAR KTOP 160853Z AUTO 07004KT 10SM CLR 24/22 A3000 RMK AO2 SLP146 T02390217
                 56004 =
2018-07-16 02:53 METAR KTOP 160753Z AUTO 00000KT 10SM CLR 24/23 A3000 RMK AO2 SLP147 T02440228 =
2018-07-16 01:53 METAR KTOP 160653Z AUTO 00000KT 10SM CLR 24/23 A3000 RMK AO2 SLP148 T02390233 =
2018-07-16 00:53 METAR KTOP 160553Z AUTO 00000KT 10SM FEW060 26/23 A3001 RMK AO2 SLP150 T02560228
                 10322 20250 403610206 51008 =

Support USWX by starting your Amazon purchase here.